sensor_id;sensor_type;location;lat;lon;timestamp;P1;durP1;ratioP1;P2;durP2;ratioP2
58412;SDS011;44209;52.952;6.790;2023-08-06T00:00:38;18.40;;;14.43;;
58412;SDS011;44209;52.952;6.790;2023-08-06T00:03:04;18.92;;;14.75;;
58412;SDS011;44209;52.952;6.790;2023-08-06T00:05:30;17.42;;;14.60;;
58412;SDS011;44209;52.952;6.790;2023-08-06T00:07:56;20.23;;;15.07;;
58412;SDS011;44209;52.952;6.790;2023-08-06T00:10:21;19.10;;;14.85;;
58412;SDS011;44209;52.952;6.790;2023-08-06T00:12:47;16.85;;;14.57;;
58412;SDS011;44209;52.952;6.790;2023-08-06T00:15:13;21.75;;;14.63;;
58412;SDS011;44209;52.952;6.790;2023-08-06T00:17:39;16.48;;;14.38;;
58412;SDS011;44209;52.952;6.790;2023-08-06T00:20:05;19.48;;;14.88;;
58412;SDS011;44209;52.952;6.790;2023-08-06T00:22:32;16.48;;;13.70;;
58412;SDS011;44209;52.952;6.790;2023-08-06T00:24:58;14.95;;;13.02;;
58412;SDS011;44209;52.952;6.790;2023-08-06T00:27:24;16.50;;;13.95;;
58412;SDS011;44209;52.952;6.790;2023-08-06T00:29:50;15.07;;;13.48;;
58412;SDS011;44209;52.952;6.790;2023-08-06T00:32:16;16.67;;;13.48;;
58412;SDS011;44209;52.952;6.790;2023-08-06T00:34:42;17.95;;;13.57;;
58412;SDS011;44209;52.952;6.790;2023-08-06T00:37:08;15.25;;;13.27;;
58412;SDS011;44209;52.952;6.790;2023-08-06T00:39:33;14.75;;;12.77;;
58412;SDS011;44209;52.952;6.790;2023-08-06T00:41:59;13.85;;;12.35;;
58412;SDS011;44209;52.952;6.790;2023-08-06T00:44:25;15.15;;;12.57;;
58412;SDS011;44209;52.952;6.790;2023-08-06T00:46:51;14.95;;;12.73;;
58412;SDS011;44209;52.952;6.790;2023-08-06T00:49:16;15.95;;;12.70;;
58412;SDS011;44209;52.952;6.790;2023-08-06T00:51:42;13.68;;;12.23;;
58412;SDS011;44209;52.952;6.790;2023-08-06T00:54:09;15.77;;;12.50;;
58412;SDS011;44209;52.952;6.790;2023-08-06T00:56:35;13.90;;;12.32;;
58412;SDS011;44209;52.952;6.790;2023-08-06T00:59:02;14.65;;;12.68;;
58412;SDS011;44209;52.952;6.790;2023-08-06T01:01:29;15.57;;;12.63;;
58412;SDS011;44209;52.952;6.790;2023-08-06T01:03:55;14.93;;;12.50;;
58412;SDS011;44209;52.952;6.790;2023-08-06T01:06:23;17.75;;;13.63;;
58412;SDS011;44209;52.952;6.790;2023-08-06T01:12:08;16.88;;;12.95;;
58412;SDS011;44209;52.952;6.790;2023-08-06T01:17:30;15.85;;;12.65;;
58412;SDS011;44209;52.952;6.790;2023-08-06T01:19:56;15.60;;;12.15;;
58412;SDS011;44209;52.952;6.790;2023-08-06T01:22:22;15.80;;;12.60;;
58412;SDS011;44209;52.952;6.790;2023-08-06T01:24:48;16.83;;;12.50;;
58412;SDS011;44209;52.952;6.790;2023-08-06T01:27:22;17.27;;;12.55;;
58412;SDS011;44209;52.952;6.790;2023-08-06T01:32:38;14.88;;;12.93;;
58412;SDS011;44209;52.952;6.790;2023-08-06T01:35:09;14.30;;;12.50;;
58412;SDS011;44209;52.952;6.790;2023-08-06T01:37:37;15.40;;;13.15;;
58412;SDS011;44209;52.952;6.790;2023-08-06T01:40:10;15.40;;;12.90;;
58412;SDS011;44209;52.952;6.790;2023-08-06T01:42:37;15.73;;;12.82;;
58412;SDS011;44209;52.952;6.790;2023-08-06T01:45:04;15.02;;;12.63;;
58412;SDS011;44209;52.952;6.790;2023-08-06T01:47:33;16.95;;;12.68;;
58412;SDS011;44209;52.952;6.790;2023-08-06T01:49:59;15.80;;;12.40;;
58412;SDS011;44209;52.952;6.790;2023-08-06T01:52:25;15.15;;;12.27;;
58412;SDS011;44209;52.952;6.790;2023-08-06T01:54:51;15.27;;;12.65;;
58412;SDS011;44209;52.952;6.790;2023-08-06T01:57:17;15.15;;;12.55;;
58412;SDS011;44209;52.952;6.790;2023-08-06T01:59:43;14.48;;;11.80;;
58412;SDS011;44209;52.952;6.790;2023-08-06T02:02:09;14.95;;;11.50;;
58412;SDS011;44209;52.952;6.790;2023-08-06T02:04:34;12.68;;;11.27;;
58412;SDS011;44209;52.952;6.790;2023-08-06T02:07:00;14.02;;;11.45;;
58412;SDS011;44209;52.952;6.790;2023-08-06T02:09:26;16.60;;;12.23;;
58412;SDS011;44209;52.952;6.790;2023-08-06T02:11:51;16.50;;;12.68;;
58412;SDS011;44209;52.952;6.790;2023-08-06T02:14:17;15.05;;;12.95;;
58412;SDS011;44209;52.952;6.790;2023-08-06T02:16:43;15.93;;;12.68;;
58412;SDS011;44209;52.952;6.790;2023-08-06T02:19:08;16.25;;;13.23;;
58412;SDS011;44209;52.952;6.790;2023-08-06T02:21:34;14.02;;;12.45;;
58412;SDS011;44209;52.952;6.790;2023-08-06T02:24:00;19.27;;;13.40;;
58412;SDS011;44209;52.952;6.790;2023-08-06T02:26:26;15.00;;;12.77;;
58412;SDS011;44209;52.952;6.790;2023-08-06T02:28:51;15.57;;;13.85;;
58412;SDS011;44209;52.952;6.790;2023-08-06T02:31:17;17.17;;;13.68;;
58412;SDS011;44209;52.952;6.790;2023-08-06T02:33:43;17.52;;;13.90;;
58412;SDS011;44209;52.952;6.790;2023-08-06T02:36:08;16.60;;;13.95;;
58412;SDS011;44209;52.952;6.790;2023-08-06T02:38:34;17.42;;;13.57;;
58412;SDS011;44209;52.952;6.790;2023-08-06T02:41:03;15.23;;;13.48;;
58412;SDS011;44209;52.952;6.790;2023-08-06T02:43:29;18.08;;;13.52;;
58412;SDS011;44209;52.952;6.790;2023-08-06T02:46:01;18.10;;;14.27;;
58412;SDS011;44209;52.952;6.790;2023-08-06T02:50:53;15.75;;;12.73;;
58412;SDS011;44209;52.952;6.790;2023-08-06T02:53:22;14.65;;;12.90;;
58412;SDS011;44209;52.952;6.790;2023-08-06T02:55:48;15.90;;;13.40;;
58412;SDS011;44209;52.952;6.790;2023-08-06T02:58:14;16.02;;;13.25;;
58412;SDS011;44209;52.952;6.790;2023-08-06T03:00:40;15.98;;;13.93;;
58412;SDS011;44209;52.952;6.790;2023-08-06T03:03:07;17.25;;;14.02;;
58412;SDS011;44209;52.952;6.790;2023-08-06T03:05:33;16.40;;;13.00;;
58412;SDS011;44209;52.952;6.790;2023-08-06T03:07:58;15.57;;;13.90;;
58412;SDS011;44209;52.952;6.790;2023-08-06T03:10:24;15.63;;;13.75;;
58412;SDS011;44209;52.952;6.790;2023-08-06T03:12:50;17.60;;;13.43;;
58412;SDS011;44209;52.952;6.790;2023-08-06T03:15:16;15.38;;;12.77;;
58412;SDS011;44209;52.952;6.790;2023-08-06T03:17:41;15.70;;;13.73;;
58412;SDS011;44209;52.952;6.790;2023-08-06T03:20:07;14.43;;;12.93;;
58412;SDS011;44209;52.952;6.790;2023-08-06T03:22:33;13.75;;;12.05;;
58412;SDS011;44209;52.952;6.790;2023-08-06T03:24:59;15.02;;;13.43;;
58412;SDS011;44209;52.952;6.790;2023-08-06T03:27:24;17.13;;;13.90;;
58412;SDS011;44209;52.952;6.790;2023-08-06T03:29:50;16.85;;;13.98;;
58412;SDS011;44209;52.952;6.790;2023-08-06T03:32:16;17.67;;;14.35;;
58412;SDS011;44209;52.952;6.790;2023-08-06T03:34:42;15.50;;;13.80;;
58412;SDS011;44209;52.952;6.790;2023-08-06T03:37:08;15.20;;;13.45;;
58412;SDS011;44209;52.952;6.790;2023-08-06T03:39:33;15.05;;;13.27;;
58412;SDS011;44209;52.952;6.790;2023-08-06T03:41:59;18.20;;;13.77;;
58412;SDS011;44209;52.952;6.790;2023-08-06T03:44:25;16.67;;;13.60;;
58412;SDS011;44209;52.952;6.790;2023-08-06T03:46:52;16.20;;;13.77;;
58412;SDS011;44209;52.952;6.790;2023-08-06T03:49:17;15.10;;;13.07;;
58412;SDS011;44209;52.952;6.790;2023-08-06T03:51:43;16.17;;;13.65;;
58412;SDS011;44209;52.952;6.790;2023-08-06T03:54:09;13.98;;;12.55;;
58412;SDS011;44209;52.952;6.790;2023-08-06T03:56:34;15.05;;;13.48;;
58412;SDS011;44209;52.952;6.790;2023-08-06T03:59:00;20.20;;;14.73;;
58412;SDS011;44209;52.952;6.790;2023-08-06T04:01:26;17.65;;;14.07;;
58412;SDS011;44209;52.952;6.790;2023-08-06T04:03:52;16.73;;;13.85;;
58412;SDS011;44209;52.952;6.790;2023-08-06T04:06:17;14.75;;;13.18;;
58412;SDS011;44209;52.952;6.790;2023-08-06T04:08:43;16.27;;;12.95;;
58412;SDS011;44209;52.952;6.790;2023-08-06T04:11:08;37.40;;;15.15;;
58412;SDS011;44209;52.952;6.790;2023-08-06T04:13:34;25.88;;;16.15;;
58412;SDS011;44209;52.952;6.790;2023-08-06T04:16:01;18.75;;;13.52;;
58412;SDS011;44209;52.952;6.790;2023-08-06T04:18:27;16.35;;;13.25;;
58412;SDS011;44209;52.952;6.790;2023-08-06T04:20:53;16.00;;;13.50;;
58412;SDS011;44209;52.952;6.790;2023-08-06T04:23:20;16.83;;;12.45;;
58412;SDS011;44209;52.952;6.790;2023-08-06T04:25:46;16.70;;;12.55;;
58412;SDS011;44209;52.952;6.790;2023-08-06T04:28:11;18.65;;;14.20;;
58412;SDS011;44209;52.952;6.790;2023-08-06T04:30:37;18.52;;;14.50;;
58412;SDS011;44209;52.952;6.790;2023-08-06T04:33:03;19.70;;;13.23;;
58412;SDS011;44209;52.952;6.790;2023-08-06T04:35:29;26.17;;;15.02;;
58412;SDS011;44209;52.952;6.790;2023-08-06T04:37:55;16.92;;;12.70;;
58412;SDS011;44209;52.952;6.790;2023-08-06T04:40:20;17.23;;;12.73;;
58412;SDS011;44209;52.952;6.790;2023-08-06T04:42:46;15.68;;;12.85;;
58412;SDS011;44209;52.952;6.790;2023-08-06T04:45:12;21.80;;;14.63;;
58412;SDS011;44209;52.952;6.790;2023-08-06T04:47:37;19.35;;;13.75;;
58412;SDS011;44209;52.952;6.790;2023-08-06T04:50:03;19.02;;;14.27;;
58412;SDS011;44209;52.952;6.790;2023-08-06T04:52:29;16.70;;;13.43;;
58412;SDS011;44209;52.952;6.790;2023-08-06T04:54:57;16.13;;;12.93;;
58412;SDS011;44209;52.952;6.790;2023-08-06T04:57:23;29.38;;;16.05;;
58412;SDS011;44209;52.952;6.790;2023-08-06T04:59:49;15.55;;;13.55;;
58412;SDS011;44209;52.952;6.790;2023-08-06T05:02:15;22.52;;;13.93;;
58412;SDS011;44209;52.952;6.790;2023-08-06T05:04:41;17.45;;;13.77;;
58412;SDS011;44209;52.952;6.790;2023-08-06T05:07:06;22.63;;;13.65;;
58412;SDS011;44209;52.952;6.790;2023-08-06T05:09:32;14.45;;;12.10;;
58412;SDS011;44209;52.952;6.790;2023-08-06T05:12:00;18.33;;;13.65;;
58412;SDS011;44209;52.952;6.790;2023-08-06T05:14:27;22.55;;;15.15;;
58412;SDS011;44209;52.952;6.790;2023-08-06T05:16:53;18.00;;;14.40;;
58412;SDS011;44209;52.952;6.790;2023-08-06T05:19:18;21.63;;;15.75;;
58412;SDS011;44209;52.952;6.790;2023-08-06T05:21:44;17.10;;;14.52;;
58412;SDS011;44209;52.952;6.790;2023-08-06T05:24:10;19.08;;;14.95;;
58412;SDS011;44209;52.952;6.790;2023-08-06T05:26:36;17.90;;;15.15;;
58412;SDS011;44209;52.952;6.790;2023-08-06T05:29:01;19.13;;;15.35;;
58412;SDS011;44209;52.952;6.790;2023-08-06T05:31:27;19.15;;;15.23;;
58412;SDS011;44209;52.952;6.790;2023-08-06T05:33:54;21.10;;;14.57;;
58412;SDS011;44209;52.952;6.790;2023-08-06T05:36:20;19.42;;;15.23;;
58412;SDS011;44209;52.952;6.790;2023-08-06T05:38:46;19.50;;;15.52;;
58412;SDS011;44209;52.952;6.790;2023-08-06T05:41:12;17.52;;;14.85;;
58412;SDS011;44209;52.952;6.790;2023-08-06T05:43:38;17.60;;;15.43;;
58412;SDS011;44209;52.952;6.790;2023-08-06T05:46:04;18.33;;;15.63;;
58412;SDS011;44209;52.952;6.790;2023-08-06T05:48:30;20.02;;;15.90;;
58412;SDS011;44209;52.952;6.790;2023-08-06T05:50:57;20.98;;;15.75;;
58412;SDS011;44209;52.952;6.790;2023-08-06T05:53:23;17.48;;;14.75;;
58412;SDS011;44209;52.952;6.790;2023-08-06T05:55:49;21.55;;;16.35;;
58412;SDS011;44209;52.952;6.790;2023-08-06T05:58:15;17.77;;;15.48;;
58412;SDS011;44209;52.952;6.790;2023-08-06T06:00:41;20.00;;;15.85;;
58412;SDS011;44209;52.952;6.790;2023-08-06T06:03:07;22.17;;;17.48;;
58412;SDS011;44209;52.952;6.790;2023-08-06T06:05:33;18.88;;;15.20;;
58412;SDS011;44209;52.952;6.790;2023-08-06T06:07:58;17.30;;;14.07;;
58412;SDS011;44209;52.952;6.790;2023-08-06T06:10:24;21.83;;;16.58;;
58412;SDS011;44209;52.952;6.790;2023-08-06T06:12:50;19.40;;;15.57;;
58412;SDS011;44209;52.952;6.790;2023-08-06T06:15:15;22.48;;;17.25;;
58412;SDS011;44209;52.952;6.790;2023-08-06T06:17:41;18.10;;;14.90;;
58412;SDS011;44209;52.952;6.790;2023-08-06T06:20:07;20.13;;;16.75;;
58412;SDS011;44209;52.952;6.790;2023-08-06T06:22:33;18.65;;;14.63;;
58412;SDS011;44209;52.952;6.790;2023-08-06T06:24:59;17.42;;;15.52;;
58412;SDS011;44209;52.952;6.790;2023-08-06T06:27:24;18.38;;;15.68;;
58412;SDS011;44209;52.952;6.790;2023-08-06T06:29:50;20.65;;;15.98;;
58412;SDS011;44209;52.952;6.790;2023-08-06T06:32:17;18.38;;;15.77;;
58412;SDS011;44209;52.952;6.790;2023-08-06T06:34:43;17.88;;;15.18;;
58412;SDS011;44209;52.952;6.790;2023-08-06T06:37:08;17.67;;;15.70;;
58412;SDS011;44209;52.952;6.790;2023-08-06T06:39:34;18.42;;;15.07;;
58412;SDS011;44209;52.952;6.790;2023-08-06T06:42:00;20.70;;;16.13;;
58412;SDS011;44209;52.952;6.790;2023-08-06T06:44:26;15.75;;;13.95;;
58412;SDS011;44209;52.952;6.790;2023-08-06T06:46:51;16.88;;;14.93;;
58412;SDS011;44209;52.952;6.790;2023-08-06T06:49:17;19.15;;;15.20;;
58412;SDS011;44209;52.952;6.790;2023-08-06T06:51:43;15.45;;;13.82;;
58412;SDS011;44209;52.952;6.790;2023-08-06T06:54:08;16.67;;;14.80;;
58412;SDS011;44209;52.952;6.790;2023-08-06T06:56:34;15.63;;;13.23;;
58412;SDS011;44209;52.952;6.790;2023-08-06T06:59:00;13.88;;;12.40;;
58412;SDS011;44209;52.952;6.790;2023-08-06T07:01:25;16.95;;;13.77;;
58412;SDS011;44209;52.952;6.790;2023-08-06T07:03:51;15.13;;;13.13;;
58412;SDS011;44209;52.952;6.790;2023-08-06T07:06:17;16.33;;;14.50;;
58412;SDS011;44209;52.952;6.790;2023-08-06T07:08:43;16.52;;;14.48;;
58412;SDS011;44209;52.952;6.790;2023-08-06T07:11:09;15.93;;;14.10;;
58412;SDS011;44209;52.952;6.790;2023-08-06T07:13:35;18.52;;;13.98;;
58412;SDS011;44209;52.952;6.790;2023-08-06T07:16:01;17.80;;;15.77;;
58412;SDS011;44209;52.952;6.790;2023-08-06T07:18:27;15.95;;;13.52;;
58412;SDS011;44209;52.952;6.790;2023-08-06T07:20:53;17.13;;;15.07;;
58412;SDS011;44209;52.952;6.790;2023-08-06T07:23:20;16.63;;;14.00;;
58412;SDS011;44209;52.952;6.790;2023-08-06T07:25:49;16.10;;;14.40;;
58412;SDS011;44209;52.952;6.790;2023-08-06T07:28:15;17.17;;;15.32;;
58412;SDS011;44209;52.952;6.790;2023-08-06T07:30:41;18.65;;;15.77;;
58412;SDS011;44209;52.952;6.790;2023-08-06T07:33:08;15.98;;;14.27;;
58412;SDS011;44209;52.952;6.790;2023-08-06T07:35:34;16.98;;;15.15;;
58412;SDS011;44209;52.952;6.790;2023-08-06T07:38:00;17.17;;;14.57;;
58412;SDS011;44209;52.952;6.790;2023-08-06T07:40:26;18.45;;;15.60;;
58412;SDS011;44209;52.952;6.790;2023-08-06T07:42:53;18.38;;;14.38;;
58412;SDS011;44209;52.952;6.790;2023-08-06T07:45:18;15.52;;;13.82;;
58412;SDS011;44209;52.952;6.790;2023-08-06T07:47:44;16.92;;;14.55;;
58412;SDS011;44209;52.952;6.790;2023-08-06T07:50:10;15.65;;;14.05;;
58412;SDS011;44209;52.952;6.790;2023-08-06T07:52:36;16.00;;;14.35;;
58412;SDS011;44209;52.952;6.790;2023-08-06T07:55:01;17.77;;;15.32;;
58412;SDS011;44209;52.952;6.790;2023-08-06T07:57:33;17.30;;;15.40;;
58412;SDS011;44209;52.952;6.790;2023-08-06T07:59:59;16.20;;;14.60;;
58412;SDS011;44209;52.952;6.790;2023-08-06T08:02:25;17.52;;;15.73;;
58412;SDS011;44209;52.952;6.790;2023-08-06T08:04:51;18.15;;;16.25;;
58412;SDS011;44209;52.952;6.790;2023-08-06T08:07:17;17.88;;;15.98;;
58412;SDS011;44209;52.952;6.790;2023-08-06T08:09:43;18.17;;;16.30;;
58412;SDS011;44209;52.952;6.790;2023-08-06T08:12:13;17.45;;;15.40;;
58412;SDS011;44209;52.952;6.790;2023-08-06T08:14:39;17.30;;;15.50;;
58412;SDS011;44209;52.952;6.790;2023-08-06T08:17:05;15.43;;;13.93;;
58412;SDS011;44209;52.952;6.790;2023-08-06T08:19:31;14.15;;;12.82;;
58412;SDS011;44209;52.952;6.790;2023-08-06T08:21:58;14.32;;;12.82;;
58412;SDS011;44209;52.952;6.790;2023-08-06T08:24:25;13.30;;;11.90;;
58412;SDS011;44209;52.952;6.790;2023-08-06T08:26:51;13.80;;;12.55;;
58412;SDS011;44209;52.952;6.790;2023-08-06T08:29:17;14.90;;;13.32;;
58412;SDS011;44209;52.952;6.790;2023-08-06T08:31:44;13.50;;;12.30;;
58412;SDS011;44209;52.952;6.790;2023-08-06T08:34:10;13.02;;;11.27;;
58412;SDS011;44209;52.952;6.790;2023-08-06T08:36:35;13.05;;;11.75;;
58412;SDS011;44209;52.952;6.790;2023-08-06T08:39:01;12.50;;;11.30;;
58412;SDS011;44209;52.952;6.790;2023-08-06T08:41:30;12.10;;;10.90;;
58412;SDS011;44209;52.952;6.790;2023-08-06T08:43:58;13.75;;;11.48;;
58412;SDS011;44209;52.952;6.790;2023-08-06T08:46:27;11.23;;;9.93;;
58412;SDS011;44209;52.952;6.790;2023-08-06T08:48:55;16.65;;;11.57;;
58412;SDS011;44209;52.952;6.790;2023-08-06T08:51:22;12.32;;;11.13;;
58412;SDS011;44209;52.952;6.790;2023-08-06T08:53:48;10.90;;;9.80;;
58412;SDS011;44209;52.952;6.790;2023-08-06T08:56:16;11.32;;;10.23;;
58412;SDS011;44209;52.952;6.790;2023-08-06T08:58:41;12.50;;;10.15;;
58412;SDS011;44209;52.952;6.790;2023-08-06T09:01:07;11.57;;;10.38;;
58412;SDS011;44209;52.952;6.790;2023-08-06T09:03:34;11.80;;;10.13;;
58412;SDS011;44209;52.952;6.790;2023-08-06T09:06:02;10.52;;;9.52;;
58412;SDS011;44209;52.952;6.790;2023-08-06T09:08:30;11.60;;;10.27;;
58412;SDS011;44209;52.952;6.790;2023-08-06T09:11:02;11.27;;;10.23;;
58412;SDS011;44209;52.952;6.790;2023-08-06T09:13:30;9.57;;;8.68;;
58412;SDS011;44209;52.952;6.790;2023-08-06T09:15:56;10.68;;;9.68;;
58412;SDS011;44209;52.952;6.790;2023-08-06T09:18:25;9.90;;;9.00;;
58412;SDS011;44209;52.952;6.790;2023-08-06T09:20:54;10.93;;;8.93;;
58412;SDS011;44209;52.952;6.790;2023-08-06T09:23:21;9.32;;;8.43;;
58412;SDS011;44209;52.952;6.790;2023-08-06T09:25:54;9.63;;;8.70;;
58412;SDS011;44209;52.952;6.790;2023-08-06T09:28:20;9.82;;;8.68;;
58412;SDS011;44209;52.952;6.790;2023-08-06T09:30:47;9.25;;;8.45;;
58412;SDS011;44209;52.952;6.790;2023-08-06T09:33:16;8.98;;;7.38;;
58412;SDS011;44209;52.952;6.790;2023-08-06T09:35:45;8.77;;;7.05;;
58412;SDS011;44209;52.952;6.790;2023-08-06T09:38:11;9.43;;;7.20;;
58412;SDS011;44209;52.952;6.790;2023-08-06T09:40:38;8.05;;;7.32;;
58412;SDS011;44209;52.952;6.790;2023-08-06T09:43:06;8.50;;;7.70;;
58412;SDS011;44209;52.952;6.790;2023-08-06T09:45:32;8.75;;;7.93;;
58412;SDS011;44209;52.952;6.790;2023-08-06T09:48:03;8.95;;;7.85;;
58412;SDS011;44209;52.952;6.790;2023-08-06T09:50:33;9.90;;;8.15;;
58412;SDS011;44209;52.952;6.790;2023-08-06T09:53:04;9.60;;;7.60;;
58412;SDS011;44209;52.952;6.790;2023-08-06T09:55:32;8.50;;;7.70;;
58412;SDS011;44209;52.952;6.790;2023-08-06T09:57:58;6.80;;;6.18;;
58412;SDS011;44209;52.952;6.790;2023-08-06T10:00:25;7.00;;;6.30;;
58412;SDS011;44209;52.952;6.790;2023-08-06T10:02:52;7.18;;;5.90;;
58412;SDS011;44209;52.952;6.790;2023-08-06T10:05:21;6.07;;;5.57;;
58412;SDS011;44209;52.952;6.790;2023-08-06T10:07:48;6.80;;;5.95;;
58412;SDS011;44209;52.952;6.790;2023-08-06T10:10:16;6.25;;;5.68;;
58412;SDS011;44209;52.952;6.790;2023-08-06T10:12:46;5.82;;;5.22;;
58412;SDS011;44209;52.952;6.790;2023-08-06T10:15:20;6.30;;;5.60;;
58412;SDS011;44209;52.952;6.790;2023-08-06T10:17:50;6.63;;;5.38;;
58412;SDS011;44209;52.952;6.790;2023-08-06T10:20:19;5.88;;;4.65;;
58412;SDS011;44209;52.952;6.790;2023-08-06T10:22:46;5.88;;;5.20;;
58412;SDS011;44209;52.952;6.790;2023-08-06T10:25:28;5.35;;;4.85;;
58412;SDS011;44209;52.952;6.790;2023-08-06T10:27:56;5.53;;;4.38;;
58412;SDS011;44209;52.952;6.790;2023-08-06T10:30:29;4.68;;;4.07;;
58412;SDS011;44209;52.952;6.790;2023-08-06T10:33:03;5.05;;;4.32;;
58412;SDS011;44209;52.952;6.790;2023-08-06T10:40:26;5.72;;;4.07;;
58412;SDS011;44209;52.952;6.790;2023-08-06T10:42:52;3.55;;;3.25;;
58412;SDS011;44209;52.952;6.790;2023-08-06T10:45:18;3.60;;;3.30;;
58412;SDS011;44209;52.952;6.790;2023-08-06T10:47:44;4.30;;;3.10;;
58412;SDS011;44209;52.952;6.790;2023-08-06T10:50:15;3.45;;;3.15;;
58412;SDS011;44209;52.952;6.790;2023-08-06T10:52:45;3.22;;;2.90;;
58412;SDS011;44209;52.952;6.790;2023-08-06T10:55:14;5.80;;;3.50;;
58412;SDS011;44209;52.952;6.790;2023-08-06T10:57:51;3.20;;;2.90;;
58412;SDS011;44209;52.952;6.790;2023-08-06T11:00:18;5.28;;;2.70;;
58412;SDS011;44209;52.952;6.790;2023-08-06T11:02:43;3.08;;;2.78;;
58412;SDS011;44209;52.952;6.790;2023-08-06T11:05:11;2.65;;;2.45;;
58412;SDS011;44209;52.952;6.790;2023-08-06T11:07:37;2.88;;;2.58;;
58412;SDS011;44209;52.952;6.790;2023-08-06T11:10:04;4.30;;;2.72;;
58412;SDS011;44209;52.952;6.790;2023-08-06T11:12:34;2.67;;;2.17;;
58412;SDS011;44209;52.952;6.790;2023-08-06T11:15:00;2.50;;;2.30;;
58412;SDS011;44209;52.952;6.790;2023-08-06T11:17:28;3.72;;;2.17;;
58412;SDS011;44209;52.952;6.790;2023-08-06T11:19:55;4.65;;;2.40;;
58412;SDS011;44209;52.952;6.790;2023-08-06T11:22:21;2.72;;;2.33;;
58412;SDS011;44209;52.952;6.790;2023-08-06T11:24:47;2.45;;;2.13;;
58412;SDS011;44209;52.952;6.790;2023-08-06T11:27:14;2.60;;;2.33;;
58412;SDS011;44209;52.952;6.790;2023-08-06T11:29:40;2.22;;;2.03;;
58412;SDS011;44209;52.952;6.790;2023-08-06T11:32:07;2.55;;;1.92;;
58412;SDS011;44209;52.952;6.790;2023-08-06T11:34:34;2.78;;;2.20;;
58412;SDS011;44209;52.952;6.790;2023-08-06T11:37:00;3.53;;;2.20;;
58412;SDS011;44209;52.952;6.790;2023-08-06T11:39:28;2.58;;;2.10;;
58412;SDS011;44209;52.952;6.790;2023-08-06T11:41:54;2.97;;;2.10;;
58412;SDS011;44209;52.952;6.790;2023-08-06T11:44:19;2.65;;;2.13;;
58412;SDS011;44209;52.952;6.790;2023-08-06T11:46:54;1.92;;;1.80;;
58412;SDS011;44209;52.952;6.790;2023-08-06T11:49:36;2.95;;;2.20;;
58412;SDS011;44209;52.952;6.790;2023-08-06T11:54:39;2.28;;;2.10;;
58412;SDS011;44209;52.952;6.790;2023-08-06T11:57:08;2.95;;;2.65;;
58412;SDS011;44209;52.952;6.790;2023-08-06T11:59:34;3.20;;;2.65;;
58412;SDS011;44209;52.952;6.790;2023-08-06T12:02:01;2.72;;;2.50;;
58412;SDS011;44209;52.952;6.790;2023-08-06T12:04:27;3.80;;;2.63;;
58412;SDS011;44209;52.952;6.790;2023-08-06T12:06:54;3.33;;;2.70;;
58412;SDS011;44209;52.952;6.790;2023-08-06T12:09:19;3.95;;;2.60;;
58412;SDS011;44209;52.952;6.790;2023-08-06T12:11:45;2.28;;;2.08;;
58412;SDS011;44209;52.952;6.790;2023-08-06T12:14:11;2.58;;;2.25;;
58412;SDS011;44209;52.952;6.790;2023-08-06T12:16:37;3.90;;;2.45;;
58412;SDS011;44209;52.952;6.790;2023-08-06T12:19:03;3.30;;;2.40;;
58412;SDS011;44209;52.952;6.790;2023-08-06T12:21:29;2.70;;;2.35;;
58412;SDS011;44209;52.952;6.790;2023-08-06T12:23:55;2.60;;;2.40;;
58412;SDS011;44209;52.952;6.790;2023-08-06T12:26:20;3.65;;;2.50;;
58412;SDS011;44209;52.952;6.790;2023-08-06T12:28:46;2.78;;;2.30;;
58412;SDS011;44209;52.952;6.790;2023-08-06T12:31:12;3.13;;;2.28;;
58412;SDS011;44209;52.952;6.790;2023-08-06T12:33:37;4.25;;;2.50;;
58412;SDS011;44209;52.952;6.790;2023-08-06T12:36:03;3.08;;;2.28;;
58412;SDS011;44209;52.952;6.790;2023-08-06T12:38:29;3.13;;;2.33;;
58412;SDS011;44209;52.952;6.790;2023-08-06T12:40:58;2.60;;;2.20;;
58412;SDS011;44209;52.952;6.790;2023-08-06T12:43:24;2.60;;;2.17;;
58412;SDS011;44209;52.952;6.790;2023-08-06T12:45:50;3.17;;;2.13;;
58412;SDS011;44209;52.952;6.790;2023-08-06T12:48:16;2.30;;;2.10;;
58412;SDS011;44209;52.952;6.790;2023-08-06T12:50:42;3.58;;;2.53;;
58412;SDS011;44209;52.952;6.790;2023-08-06T12:53:08;2.30;;;2.10;;
58412;SDS011;44209;52.952;6.790;2023-08-06T12:55:33;2.70;;;2.40;;
58412;SDS011;44209;52.952;6.790;2023-08-06T12:57:59;2.72;;;2.53;;
58412;SDS011;44209;52.952;6.790;2023-08-06T13:00:28;2.75;;;2.28;;
58412;SDS011;44209;52.952;6.790;2023-08-06T13:02:53;2.40;;;2.20;;
58412;SDS011;44209;52.952;6.790;2023-08-06T13:05:19;3.15;;;2.20;;
58412;SDS011;44209;52.952;6.790;2023-08-06T13:07:45;2.85;;;2.42;;
58412;SDS011;44209;52.952;6.790;2023-08-06T13:10:11;3.03;;;2.30;;
58412;SDS011;44209;52.952;6.790;2023-08-06T13:12:36;2.20;;;2.00;;
58412;SDS011;44209;52.952;6.790;2023-08-06T13:15:02;2.35;;;2.13;;
58412;SDS011;44209;52.952;6.790;2023-08-06T13:17:28;2.50;;;2.30;;
58412;SDS011;44209;52.952;6.790;2023-08-06T13:19:54;2.58;;;2.20;;
58412;SDS011;44209;52.952;6.790;2023-08-06T13:22:19;2.50;;;2.30;;
58412;SDS011;44209;52.952;6.790;2023-08-06T13:24:45;3.42;;;2.20;;
58412;SDS011;44209;52.952;6.790;2023-08-06T13:27:10;2.50;;;2.30;;
58412;SDS011;44209;52.952;6.790;2023-08-06T13:29:36;2.65;;;2.45;;
58412;SDS011;44209;52.952;6.790;2023-08-06T13:32:02;2.55;;;2.30;;
58412;SDS011;44209;52.952;6.790;2023-08-06T13:34:28;2.75;;;2.38;;
58412;SDS011;44209;52.952;6.790;2023-08-06T13:36:53;3.05;;;2.40;;
58412;SDS011;44209;52.952;6.790;2023-08-06T13:39:19;2.40;;;2.20;;
58412;SDS011;44209;52.952;6.790;2023-08-06T13:41:45;2.60;;;2.28;;
58412;SDS011;44209;52.952;6.790;2023-08-06T13:44:11;2.25;;;1.98;;
58412;SDS011;44209;52.952;6.790;2023-08-06T13:46:39;2.33;;;1.95;;
58412;SDS011;44209;52.952;6.790;2023-08-06T13:49:04;2.95;;;2.22;;
58412;SDS011;44209;52.952;6.790;2023-08-06T13:51:30;2.25;;;2.05;;
58412;SDS011;44209;52.952;6.790;2023-08-06T13:53:56;2.30;;;2.10;;
58412;SDS011;44209;52.952;6.790;2023-08-06T13:56:22;2.35;;;2.15;;
58412;SDS011;44209;52.952;6.790;2023-08-06T13:58:48;2.38;;;2.17;;
58412;SDS011;44209;52.952;6.790;2023-08-06T14:01:16;3.60;;;2.15;;
58412;SDS011;44209;52.952;6.790;2023-08-06T14:03:44;2.42;;;2.22;;
58412;SDS011;44209;52.952;6.790;2023-08-06T14:06:10;2.78;;;2.30;;
58412;SDS011;44209;52.952;6.790;2023-08-06T14:08:35;2.55;;;2.25;;
58412;SDS011;44209;52.952;6.790;2023-08-06T14:11:01;3.15;;;2.50;;
58412;SDS011;44209;52.952;6.790;2023-08-06T14:13:27;2.75;;;2.40;;
58412;SDS011;44209;52.952;6.790;2023-08-06T14:15:52;2.50;;;2.20;;
58412;SDS011;44209;52.952;6.790;2023-08-06T14:18:18;2.30;;;2.10;;
58412;SDS011;44209;52.952;6.790;2023-08-06T14:20:44;3.25;;;2.17;;
58412;SDS011;44209;52.952;6.790;2023-08-06T14:23:10;2.38;;;2.15;;
58412;SDS011;44209;52.952;6.790;2023-08-06T14:25:36;2.50;;;2.30;;
58412;SDS011;44209;52.952;6.790;2023-08-06T14:28:02;2.65;;;1.92;;
58412;SDS011;44209;52.952;6.790;2023-08-06T14:30:28;2.67;;;2.33;;
58412;SDS011;44209;52.952;6.790;2023-08-06T14:32:54;2.20;;;2.00;;
58412;SDS011;44209;52.952;6.790;2023-08-06T14:35:19;2.70;;;2.42;;
58412;SDS011;44209;52.952;6.790;2023-08-06T14:37:45;2.30;;;2.10;;
58412;SDS011;44209;52.952;6.790;2023-08-06T14:40:11;4.38;;;2.20;;
58412;SDS011;44209;52.952;6.790;2023-08-06T14:42:37;2.58;;;2.00;;
58412;SDS011;44209;52.952;6.790;2023-08-06T14:45:02;2.80;;;2.40;;